Time;durP1;ratioP1;P1;durP2;ratioP2;P2;SDS_P1;SDS_P2;PMS_P1;PMS_P2;Temp;Humidity;BMP_temperature;BMP_pressure;BME280_temperature;BME280_humidity;BME280_pressure;Samples;Min_cycle;Max_cycle;Signal;HPM_P1;HPM_P2
2023/12/12 00:01:30;;;;;;;6.55;1.95;;;14.10;99.90;;;;;;5018725;28;20088;-32
2023/12/12 00:03:56;;;;;;;6.30;1.83;;;13.80;99.90;;;;;;5017304;28;20397;-34
2023/12/12 00:06:22;;;;;;;6.95;1.58;;;13.80;99.90;;;;;;5019842;28;20401;-36
2023/12/12 00:08:47;;;;;;;6.80;2.45;;;13.80;99.90;;;;;;5016605;28;20390;-36
2023/12/12 00:11:13;;;;;;;5.22;1.70;;;14.20;99.90;;;;;;5019277;28;20048;-34
2023/12/12 00:13:39;;;;;;;5.22;1.60;;;14.00;99.90;;;;;;5016527;28;20044;-36
2023/12/12 00:16:06;;;;;;;5.70;1.73;;;14.20;99.90;;;;;;5018414;28;20045;-39
2023/12/12 00:18:35;;;;;;;6.28;1.55;;;13.70;99.90;;;;;;5013530;28;20057;-34
2023/12/12 00:21:02;;;;;;;5.75;1.40;;;14.00;99.90;;;;;;5017179;28;20065;-36
2023/12/12 00:23:27;;;;;;;3.40;1.10;;;13.70;99.90;;;;;;5015869;28;20393;-33
2023/12/12 00:25:53;;;;;;;4.45;1.52;;;14.20;99.90;;;;;;5019842;28;20040;-35
2023/12/12 00:28:19;;;;;;;4.82;1.35;;;14.30;99.90;;;;;;5022152;28;20038;-36
2023/12/12 00:30:44;;;;;;;5.38;1.30;;;13.90;99.90;;;;;;5021360;28;20033;-40
2023/12/12 00:33:10;;;;;;;6.20;1.50;;;13.90;99.90;;;;;;5021695;28;20041;-39
2023/12/12 00:35:36;;;;;;;5.03;1.50;;;13.30;99.90;;;;;;5024133;28;20657;-35
2023/12/12 00:38:01;;;;;;;5.10;1.60;;;13.90;99.90;;;;;;5020466;28;20049;-33
2023/12/12 00:40:27;;;;;;;4.80;1.40;;;12.60;99.90;;;;;;5020352;28;20492;-32
2023/12/12 00:42:53;;;;;;;6.28;1.52;;;13.90;99.90;;;;;;5021763;28;20029;-33
2023/12/12 00:45:18;;;;;;;4.72;1.70;;;13.60;99.90;;;;;;5020838;28;20056;-35
2023/12/12 00:47:46;;;;;;;5.95;1.50;;;14.50;99.90;;;;;;5022536;28;20381;-40
2023/12/12 00:50:12;;;;;;;5.28;1.30;;;14.30;99.90;;;;;;5022049;28;20048;-39
2023/12/12 00:52:40;;;;;;;6.80;1.45;;;14.20;99.90;;;;;;5019975;28;20045;-33
2023/12/12 00:55:06;;;;;;;5.10;1.50;;;14.40;99.90;;;;;;5018868;28;20053;-34
2023/12/12 00:57:32;;;;;;;6.50;1.40;;;13.80;99.90;;;;;;5018577;28;20041;-33
2023/12/12 00:59:57;;;;;;;6.15;1.77;;;14.40;99.90;;;;;;5018279;28;20231;-36
2023/12/12 01:02:23;;;;;;;5.32;1.35;;;13.90;99.90;;;;;;5021868;28;20026;-36
2023/12/12 01:04:52;;;;;;;6.28;2.05;;;14.30;99.90;;;;;;5016796;28;20060;-36
2023/12/12 01:07:18;;;;;;;4.80;1.35;;;13.80;99.90;;;;;;5019854;28;20045;-38
2023/12/12 01:09:44;;;;;;;5.03;1.40;;;14.10;99.90;;;;;;5018965;28;20078;-37
2023/12/12 01:12:10;;;;;;;3.75;1.30;;;13.60;99.90;;;;;;5021971;28;20034;-36
2023/12/12 01:14:35;;;;;;;5.30;1.30;;;14.00;99.90;;;;;;5022979;28;20132;-33
2023/12/12 01:17:03;;;;;;;4.10;1.50;;;13.90;99.90;;;;;;5021035;28;20045;-33
2023/12/12 01:19:29;;;;;;;5.05;1.30;;;14.20;99.90;;;;;;5023010;28;20049;-32
2023/12/12 01:21:55;;;;;;;5.78;1.60;;;14.00;99.90;;;;;;5020929;28;20056;-35
2023/12/12 01:24:21;;;;;;;3.90;1.20;;;14.00;99.90;;;;;;5014887;28;20094;-33
2023/12/12 01:26:47;;;;;;;4.60;1.40;;;13.50;99.90;;;;;;5019818;28;20029;-37
2023/12/12 01:29:16;;;;;;;7.05;1.77;;;13.60;99.90;;;;;;5020068;28;20142;-36
2023/12/12 01:31:42;;;;;;;4.97;1.17;;;13.70;99.90;;;;;;5018953;28;20073;-37
2023/12/12 01:34:08;;;;;;;5.60;1.27;;;14.00;99.90;;;;;;5016374;28;20049;-37
2023/12/12 01:36:34;;;;;;;4.25;1.20;;;14.00;99.90;;;;;;5004964;28;20110;-36
2023/12/12 01:38:59;;;;;;;4.10;1.30;;;13.60;99.90;;;;;;5018836;28;20406;-34
2023/12/12 01:41:25;;;;;;;4.30;1.30;;;13.90;99.90;;;;;;5021585;28;20087;-36
2023/12/12 01:43:51;;;;;;;6.25;1.77;;;13.80;99.90;;;;;;5018978;28;20212;-32
2023/12/12 01:46:18;;;;;;;4.88;1.27;;;14.20;99.90;;;;;;5018498;28;20705;-36
2023/12/12 01:48:44;;;;;;;5.20;1.60;;;13.50;99.90;;;;;;5018994;28;20166;-36
2023/12/12 01:51:10;;;;;;;6.28;1.35;;;13.90;99.90;;;;;;5021298;28;20076;-34
2023/12/12 01:53:41;;;;;;;4.53;1.15;;;14.00;99.90;;;;;;5015246;28;20096;-36
2023/12/12 01:56:07;;;;;;;4.13;1.50;;;14.20;99.90;;;;;;5020212;28;20049;-33
2023/12/12 01:58:35;;;;;;;5.95;1.50;;;13.50;99.90;;;;;;5019166;28;20044;-33
2023/12/12 02:01:02;;;;;;;5.82;1.38;;;14.00;99.90;;;;;;5020070;28;20154;-33
2023/12/12 05:46:35;;;;;;;21.58;5.80;;;13.70;99.90;;;;;;5215219;22;20103;-40
2023/12/12 05:49:00;;;;;;;16.05;4.38;;;13.90;99.90;;;;;;4952807;28;20886;-35
2023/12/12 05:51:26;;;;;;;12.57;4.10;;;14.30;99.90;;;;;;4972241;28;20200;-35
2023/12/12 05:53:52;;;;;;;15.88;4.10;;;14.10;99.90;;;;;;4965664;28;20026;-35
2023/12/12 05:56:18;;;;;;;14.60;3.70;;;14.20;99.90;;;;;;4939428;28;20586;-39
2023/12/12 05:58:44;;;;;;;17.20;4.88;;;14.70;99.90;;;;;;4955319;28;20912;-40
2023/12/12 06:01:10;;;;;;;11.10;3.78;;;14.00;99.90;;;;;;4969394;28;20089;-38
2023/12/12 06:03:35;;;;;;;12.68;3.97;;;14.40;99.90;;;;;;4971389;28;20449;-35
2023/12/12 06:06:07;;;;;;;9.88;3.80;;;14.60;99.90;;;;;;4987823;28;20078;-35
2023/12/12 06:08:33;;;;;;;12.65;3.38;;;14.30;99.90;;;;;;4963997;28;20046;-36
2023/12/12 06:10:59;;;;;;;12.02;3.88;;;14.20;99.90;;;;;;4959969;28;20038;-38
2023/12/12 06:13:26;;;;;;;15.05;4.25;;;14.20;99.90;;;;;;4973085;28;20130;-35
2023/12/12 06:15:51;;;;;;;15.18;5.32;;;14.80;99.90;;;;;;4967150;28;20098;-35
2023/12/12 06:18:17;;;;;;;18.05;6.05;;;14.60;99.90;;;;;;4965760;28;20051;-41
2023/12/12 06:20:43;;;;;;;15.35;5.28;;;14.50;99.90;;;;;;4968471;28;20038;-38
2023/12/12 06:23:08;;;;;;;14.50;5.15;;;14.20;99.90;;;;;;4966053;28;20050;-36
2023/12/12 06:25:34;;;;;;;12.80;4.82;;;14.40;99.90;;;;;;4962351;28;20156;-36
2023/12/12 06:27:59;;;;;;;14.32;5.10;;;14.30;99.90;;;;;;4971878;28;20050;-38
2023/12/12 06:30:25;;;;;;;11.98;4.95;;;14.30;99.90;;;;;;4971839;28;20041;-35
2023/12/12 06:32:51;;;;;;;15.07;5.18;;;14.70;99.90;;;;;;4953701;28;20553;-39
2023/12/12 06:35:17;;;;;;;18.25;6.57;;;14.50;99.90;;;;;;4970091;28;20072;-39
2023/12/12 06:37:43;;;;;;;19.20;6.00;;;14.40;99.90;;;;;;4977249;28;20034;-41
2023/12/12 06:40:09;;;;;;;21.85;6.70;;;14.20;99.90;;;;;;4968666;28;20461;-41
2023/12/12 06:42:35;;;;;;;19.15;6.28;;;13.90;99.90;;;;;;4971846;28;20078;-38
2023/12/12 06:45:01;;;;;;;21.58;6.32;;;14.30;99.90;;;;;;4970779;28;20042;-35
2023/12/12 06:47:26;;;;;;;15.90;5.53;;;14.40;99.90;;;;;;4970925;28;20113;-38
2023/12/12 06:49:52;;;;;;;16.15;5.47;;;14.20;99.90;;;;;;4990455;28;20078;-36
2023/12/12 06:52:18;;;;;;;19.55;5.70;;;14.50;99.90;;;;;;4971861;28;20069;-38
2023/12/12 06:54:43;;;;;;;18.38;6.00;;;14.50;99.90;;;;;;4971188;28;20066;-38
2023/12/12 06:57:10;;;;;;;20.23;5.43;;;14.40;99.90;;;;;;4952352;28;20050;-39
2023/12/12 06:59:36;;;;;;;13.20;4.75;;;14.30;99.90;;;;;;4972851;28;20077;-35
2023/12/12 07:02:02;;;;;;;25.23;5.20;;;14.40;99.90;;;;;;4975231;28;20078;-36
2023/12/12 07:04:27;;;;;;;16.52;5.25;;;14.30;99.90;;;;;;4967573;28;20360;-36
2023/12/12 07:06:53;;;;;;;22.77;5.60;;;13.80;99.90;;;;;;4956424;28;20038;-40
2023/12/12 07:09:19;;;;;;;23.00;7.10;;;14.50;99.90;;;;;;4952972;28;20038;-36
2023/12/12 07:11:45;;;;;;;17.65;6.07;;;15.30;99.90;;;;;;4977245;28;20041;-39
2023/12/12 07:14:13;;;;;;;18.88;5.82;;;14.20;99.90;;;;;;4972513;28;20046;-39
2023/12/12 07:16:38;;;;;;;13.70;5.25;;;14.40;99.90;;;;;;4976286;28;20445;-34
2023/12/12 07:19:04;;;;;;;16.48;4.75;;;14.30;99.90;;;;;;4973353;28;20054;-34
2023/12/12 07:21:30;;;;;;;15.88;4.25;;;14.30;99.90;;;;;;4985748;28;20070;-38
2023/12/12 07:23:56;;;;;;;12.95;4.07;;;14.50;99.90;;;;;;4971777;28;20035;-37
2023/12/12 07:26:22;;;;;;;14.73;4.60;;;13.90;99.90;;;;;;4969859;28;20509;-37
2023/12/12 07:28:49;;;;;;;13.52;4.32;;;13.80;99.90;;;;;;4968976;28;20065;-38
2023/12/12 07:31:15;;;;;;;10.57;3.28;;;14.50;99.90;;;;;;4972465;28;20490;-35
2023/12/12 07:33:41;;;;;;;10.45;3.47;;;14.00;99.90;;;;;;4975118;28;20048;-38
2023/12/12 07:36:07;;;;;;;11.65;3.70;;;14.40;99.90;;;;;;4972534;28;20048;-37
2023/12/12 07:38:33;;;;;;;13.70;4.00;;;13.70;99.90;;;;;;4971746;28;20618;-37
2023/12/12 07:41:00;;;;;;;11.82;3.70;;;13.90;99.90;;;;;;4975271;28;20039;-36
2023/12/12 07:43:26;;;;;;;13.50;3.45;;;13.90;99.90;;;;;;4967970;28;20047;-37
2023/12/12 07:45:52;;;;;;;9.20;2.58;;;14.30;99.90;;;;;;4948044;28;20070;-41
2023/12/12 07:48:18;;;;;;;9.35;3.20;;;14.50;99.90;;;;;;4941123;28;20141;-39
2023/12/12 07:50:43;;;;;;;10.88;2.70;;;13.60;99.90;;;;;;4970090;28;20466;-36
2023/12/12 07:53:09;;;;;;;8.30;2.35;;;14.40;99.90;;;;;;4968570;28;20141;-39
2023/12/12 07:55:35;;;;;;;7.97;3.00;;;14.30;99.90;;;;;;4971228;28;20175;-36
2023/12/12 07:58:02;;;;;;;7.15;2.35;;;14.40;99.90;;;;;;4971305;28;20050;-39
2023/12/12 08:00:28;;;;;;;7.82;2.45;;;13.60;99.90;;;;;;4973203;28;20204;-37
2023/12/12 08:02:54;;;;;;;9.80;3.15;;;14.20;99.90;;;;;;4972760;28;20049;-35
2023/12/12 08:05:20;;;;;;;8.18;2.50;;;13.70;99.90;;;;;;4972225;28;21993;-41
2023/12/12 08:07:46;;;;;;;7.25;2.63;;;14.50;99.90;;;;;;4971049;28;20038;-36
2023/12/12 08:10:12;;;;;;;9.23;2.67;;;14.10;99.90;;;;;;4971654;28;20413;-36
2023/12/12 08:12:37;;;;;;;9.48;2.45;;;14.00;99.90;;;;;;4970981;28;20042;-35
2023/12/12 08:15:04;;;;;;;9.77;2.50;;;14.30;99.90;;;;;;4968233;28;20465;-35
2023/12/12 08:17:29;;;;;;;7.78;1.90;;;13.80;99.90;;;;;;4972530;28;20042;-36
2023/12/12 08:19:55;;;;;;;7.03;2.38;;;14.00;99.90;;;;;;4969489;28;20049;-37
2023/12/12 08:22:21;;;;;;;5.80;2.13;;;14.30;99.90;;;;;;4975810;28;20735;-38
2023/12/12 08:24:50;;;;;;;6.55;2.60;;;13.70;99.90;;;;;;4972353;28;20031;-35
2023/12/12 08:27:17;;;;;;;6.70;2.50;;;14.30;99.90;;;;;;4973321;28;20050;-35
2023/12/12 08:29:45;;;;;;;7.60;2.50;;;14.60;99.90;;;;;;4975250;28;20387;-35
2023/12/12 08:32:11;;;;;;;7.05;2.55;;;14.40;99.90;;;;;;4961978;28;20038;-35
2023/12/12 08:34:36;;;;;;;6.85;2.05;;;14.10;99.90;;;;;;4960099;28;20058;-36
2023/12/12 08:37:03;;;;;;;8.00;2.50;;;14.00;99.90;;;;;;4966414;28;20483;-36
2023/12/12 08:39:31;;;;;;;6.97;2.70;;;14.20;99.90;;;;;;4970244;28;20086;-34
2023/12/12 08:41:57;;;;;;;8.40;2.55;;;14.10;99.90;;;;;;4969578;28;20517;-35
2023/12/12 08:44:23;;;;;;;7.72;2.92;;;14.00;99.90;;;;;;4968569;28;20043;-33
2023/12/12 08:46:50;;;;;;;8.88;2.58;;;14.30;99.90;;;;;;4969853;28;20133;-38
2023/12/12 08:49:18;;;;;;;5.28;1.90;;;14.10;99.90;;;;;;4972313;28;20035;-36
2023/12/12 08:51:44;;;;;;;4.43;1.88;;;14.50;99.90;;;;;;4973651;28;20039;-33
2023/12/12 08:54:10;;;;;;;5.30;2.08;;;14.30;99.90;;;;;;4969398;28;20046;-34
2023/12/12 08:56:36;;;;;;;6.60;2.20;;;14.20;99.90;;;;;;4968727;28;20038;-35
2023/12/12 08:59:02;;;;;;;6.97;2.10;;;14.20;99.90;;;;;;4971707;28;20047;-35
2023/12/12 09:01:28;;;;;;;6.28;2.30;;;14.80;99.90;;;;;;4972477;28;20042;-33
2023/12/12 09:03:53;;;;;;;6.60;2.10;;;14.30;99.90;;;;;;4972752;28;20061;-36
2023/12/12 09:06:19;;;;;;;5.00;1.98;;;14.20;99.90;;;;;;4971649;28;20045;-36
2023/12/12 09:08:45;;;;;;;5.93;1.92;;;14.50;99.90;;;;;;4973283;28;20043;-36
2023/12/12 09:11:11;;;;;;;6.45;2.30;;;14.30;99.90;;;;;;4972002;28;20411;-34
2023/12/12 09:13:37;;;;;;;4.43;1.83;;;14.70;99.90;;;;;;4972830;28;20444;-35
2023/12/12 09:16:03;;;;;;;4.57;1.90;;;13.80;99.90;;;;;;4971054;28;20039;-35
2023/12/12 09:18:29;;;;;;;5.45;2.00;;;14.00;99.90;;;;;;4971995;28;20058;-35
2023/12/12 09:20:54;;;;;;;4.80;2.05;;;14.00;99.90;;;;;;4971796;28;20039;-36
2023/12/12 09:23:20;;;;;;;6.43;2.00;;;14.00;99.90;;;;;;4971966;28;20088;-36
2023/12/12 09:25:46;;;;;;;6.80;2.20;;;14.40;99.90;;;;;;4972168;28;20344;-36
2023/12/12 09:28:12;;;;;;;5.35;2.22;;;14.30;99.90;;;;;;4970629;28;20041;-37
2023/12/12 09:30:37;;;;;;;4.88;1.67;;;13.70;99.90;;;;;;4972660;28;20118;-36
2023/12/12 09:33:03;;;;;;;5.50;2.08;;;14.00;99.90;;;;;;4971118;28;20089;-37
2023/12/12 09:35:29;;;;;;;4.53;2.08;;;13.70;99.90;;;;;;4970389;28;20093;-37
2023/12/12 09:37:54;;;;;;;5.13;1.73;;;14.00;99.90;;;;;;4972533;28;20534;-36
2023/12/12 09:40:20;;;;;;;5.03;2.00;;;14.40;99.90;;;;;;4971464;28;20042;-34
2023/12/12 09:42:49;;;;;;;4.47;1.63;;;14.00;99.90;;;;;;4972600;28;20101;-39
2023/12/12 09:45:16;;;;;;;4.53;1.70;;;14.60;99.90;;;;;;4969773;28;20041;-35
2023/12/12 09:47:43;;;;;;;4.82;1.65;;;13.90;99.90;;;;;;4970742;28;20049;-36
2023/12/12 09:50:10;;;;;;;3.95;1.60;;;14.40;99.90;;;;;;4971682;28;20562;-36
2023/12/12 09:52:36;;;;;;;4.20;1.70;;;13.40;99.90;;;;;;4971226;28;20042;-36
2023/12/12 09:55:03;;;;;;;4.45;1.80;;;13.90;99.90;;;;;;4969989;28;20046;-35
2023/12/12 09:57:30;;;;;;;3.92;1.63;;;13.90;99.90;;;;;;4971543;28;20038;-35
2023/12/12 09:59:58;;;;;;;4.60;1.77;;;14.40;99.90;;;;;;4971848;28;20035;-36
2023/12/12 10:02:27;;;;;;;5.22;2.45;;;14.00;99.90;;;;;;4970024;28;20133;-37
2023/12/12 10:04:54;;;;;;;4.43;1.80;;;14.10;99.90;;;;;;4969958;28;20045;-34
2023/12/12 10:07:24;;;;;;;3.90;1.65;;;13.90;99.90;;;;;;4965407;28;20039;-34
2023/12/12 10:09:49;;;;;;;4.75;2.00;;;14.00;99.90;;;;;;4971860;28;20049;-35
2023/12/12 10:12:15;;;;;;;3.83;1.60;;;13.80;99.90;;;;;;4971588;28;20125;-34
2023/12/12 10:14:47;;;;;;;4.15;1.95;;;13.80;99.90;;;;;;4970841;28;20499;-36
2023/12/12 10:17:13;;;;;;;5.35;2.10;;;14.30;99.90;;;;;;4969993;28;20042;-34
2023/12/12 10:19:39;;;;;;;4.50;1.90;;;14.40;99.90;;;;;;4971764;28;20049;-34
2023/12/12 10:22:08;;;;;;;4.25;1.65;;;14.00;99.90;;;;;;4971674;28;20035;-34
2023/12/12 10:24:35;;;;;;;4.68;1.80;;;13.90;99.90;;;;;;4966591;28;20038;-34
2023/12/12 10:27:04;;;;;;;4.97;2.03;;;14.10;99.90;;;;;;4971396;28;20045;-34
2023/12/12 10:29:33;;;;;;;5.35;2.05;;;13.80;99.90;;;;;;4970744;28;20034;-35
2023/12/12 10:31:59;;;;;;;4.10;1.63;;;14.10;99.90;;;;;;4971322;28;20035;-36
2023/12/12 10:34:27;;;;;;;4.78;2.00;;;14.90;99.90;;;;;;4969044;28;20047;-36
2023/12/12 10:36:54;;;;;;;4.40;1.88;;;13.50;99.90;;;;;;4971145;28;20410;-35
2023/12/12 10:39:19;;;;;;;5.45;2.08;;;13.90;99.90;;;;;;4970289;28;20503;-34
2023/12/12 10:41:52;;;;;;;5.65;1.98;;;14.00;99.90;;;;;;4968756;28;20082;-34
2023/12/12 10:44:21;;;;;;;4.90;1.92;;;14.40;99.90;;;;;;4967925;28;20080;-33
2023/12/12 10:46:52;;;;;;;4.70;1.90;;;14.00;99.90;;;;;;4971419;28;20031;-34
2023/12/12 10:49:20;;;;;;;4.90;1.75;;;14.10;99.90;;;;;;4970417;28;20100;-34
2023/12/12 10:51:47;;;;;;;4.97;1.90;;;14.40;99.90;;;;;;4985316;28;20054;-34
2023/12/12 10:54:15;;;;;;;4.55;1.73;;;14.10;99.90;;;;;;4967881;28;20411;-35
2023/12/12 10:56:46;;;;;;;4.55;1.80;;;14.70;99.90;;;;;;4971156;28;20058;-36
2023/12/12 10:59:15;;;;;;;4.63;2.35;;;13.90;99.90;;;;;;4962558;28;20043;-34
2023/12/12 11:01:41;;;;;;;4.60;1.80;;;13.80;99.90;;;;;;4970998;28;20487;-34
2023/12/12 11:04:07;;;;;;;4.47;2.15;;;13.90;99.90;;;;;;4970015;28;20047;-34
2023/12/12 11:06:33;;;;;;;5.03;2.10;;;14.40;99.90;;;;;;4978609;28;20038;-35
2023/12/12 11:08:59;;;;;;;4.40;1.90;;;14.20;99.90;;;;;;4969106;28;20414;-34
2023/12/12 11:11:25;;;;;;;4.55;1.95;;;14.20;99.90;;;;;;4968203;28;20051;-33
2023/12/12 11:13:52;;;;;;;4.97;1.83;;;13.30;99.90;;;;;;4979374;28;20053;-34
2023/12/12 11:16:18;;;;;;;5.35;2.20;;;14.00;99.90;;;;;;4968330;28;20049;-34
2023/12/12 11:18:46;;;;;;;4.13;1.88;;;14.00;99.90;;;;;;4970743;28;20483;-35
2023/12/12 11:21:47;;;;;;;4.70;2.10;;;13.90;99.90;;;;;;4960724;28;20042;-34
2023/12/12 11:24:14;;;;;;;5.13;1.98;;;13.80;99.90;;;;;;4967729;28;20529;-33
2023/12/12 11:26:44;;;;;;;4.90;2.40;;;14.80;99.90;;;;;;4970819;28;20372;-33
2023/12/12 11:29:15;;;;;;;4.75;2.15;;;14.00;99.90;;;;;;4970736;28;20043;-34
2023/12/12 11:32:00;;;;;;;4.35;1.92;;;14.20;99.90;;;;;;4966436;28;20046;-34
2023/12/12 11:34:26;;;;;;;4.38;1.80;;;13.80;99.90;;;;;;4967943;28;20054;-36
2023/12/12 11:36:59;;;;;;;4.85;2.15;;;14.20;99.90;;;;;;4969226;28;20398;-36
2023/12/12 11:39:37;;;;;;;5.10;2.40;;;13.80;99.90;;;;;;4969944;28;20042;-35
2023/12/12 11:42:04;;;;;;;4.88;2.22;;;14.00;99.90;;;;;;4970686;28;20078;-34
2023/12/12 11:44:47;;;;;;;4.53;1.95;;;14.00;99.90;;;;;;4968932;28;20534;-33
2023/12/12 11:47:14;;;;;;;4.60;1.85;;;13.80;99.90;;;;;;4964244;28;20061;-34
2023/12/12 11:49:40;;;;;;;4.68;2.10;;;14.20;99.90;;;;;;4966602;28;20041;-36
2023/12/12 11:52:07;;;;;;;4.88;2.13;;;13.90;99.90;;;;;;4970063;28;20042;-32
2023/12/12 11:54:33;;;;;;;5.00;2.17;;;14.20;99.90;;;;;;4969468;28;20098;-38
2023/12/12 11:57:01;;;;;;;4.38;2.00;;;14.20;99.90;;;;;;4968681;28;20194;-36
2023/12/12 11:59:28;;;;;;;5.63;2.00;;;13.70;99.90;;;;;;4968233;28;20423;-33
2023/12/12 12:01:54;;;;;;;4.82;2.05;;;13.90;99.90;;;;;;4970426;28;20035;-34
2023/12/12 12:04:21;;;;;;;5.22;1.88;;;13.90;99.90;;;;;;4968869;28;20045;-35
2023/12/12 12:06:48;;;;;;;4.35;1.80;;;14.40;99.90;;;;;;4970478;28;20126;-35
2023/12/12 12:09:16;;;;;;;5.00;2.05;;;13.90;99.90;;;;;;4968849;28;20117;-35
2023/12/12 12:11:49;;;;;;;5.15;2.17;;;14.00;99.90;;;;;;4966210;28;20090;-37
2023/12/12 12:14:21;;;;;;;4.80;2.15;;;13.40;99.90;;;;;;4967741;28;20243;-35
2023/12/12 12:16:47;;;;;;;4.60;2.20;;;13.90;99.90;;;;;;4969054;28;20118;-34
2023/12/12 12:19:37;;;;;;;4.57;1.95;;;14.20;99.90;;;;;;4967291;28;20054;-35
2023/12/12 12:22:08;;;;;;;4.28;2.00;;;13.90;99.90;;;;;;4969027;28;20118;-34
2023/12/12 12:24:44;;;;;;;4.70;2.00;;;13.80;99.90;;;;;;4971523;28;20030;-38
2023/12/12 12:27:10;;;;;;;5.90;2.72;;;14.00;99.90;;;;;;4973635;28;20490;-36
2023/12/12 12:29:35;;;;;;;5.38;2.40;;;13.50;99.90;;;;;;4973111;28;20053;-36
2023/12/12 12:32:17;;;;;;;5.55;2.80;;;14.00;99.90;;;;;;4973448;28;20081;-34
2023/12/12 12:34:43;;;;;;;4.95;2.42;;;14.00;99.90;;;;;;4971675;28;20409;-35
2023/12/12 12:37:34;;;;;;;4.90;2.22;;;14.20;99.90;;;;;;4971962;28;20055;-37
2023/12/12 12:40:05;;;;;;;4.93;2.13;;;14.00;99.90;;;;;;4986598;28;20057;-37
2023/12/12 12:42:38;;;;;;;4.80;2.30;;;14.50;99.90;;;;;;4971169;28;20042;-38
2023/12/12 12:45:05;;;;;;;5.95;2.80;;;13.70;99.90;;;;;;4971576;28;20058;-34
2023/12/12 12:47:32;;;;;;;4.72;2.00;;;13.80;99.90;;;;;;4985187;28;20042;-34
2023/12/12 12:50:01;;;;;;;5.63;2.60;;;13.90;99.90;;;;;;4973393;28;20117;-35
2023/12/12 12:52:27;;;;;;;4.75;2.22;;;14.40;99.90;;;;;;4971646;28;20630;-34
2023/12/12 12:54:52;;;;;;;5.75;2.45;;;13.70;99.90;;;;;;4972588;28;20064;-34
2023/12/12 12:57:18;;;;;;;5.75;2.30;;;14.30;99.90;;;;;;4972234;28;20047;-35
2023/12/12 12:59:44;;;;;;;6.05;2.40;;;14.50;99.90;;;;;;4970040;28;20050;-34
2023/12/12 13:02:10;;;;;;;6.25;2.65;;;13.90;99.90;;;;;;4973102;28;20494;-35
2023/12/12 13:04:40;;;;;;;5.85;2.53;;;13.80;99.90;;;;;;4971762;28;20490;-36
2023/12/12 13:07:07;;;;;;;5.35;2.30;;;14.10;99.90;;;;;;4973057;28;20406;-35
2023/12/12 13:09:33;;;;;;;6.15;2.47;;;14.20;99.90;;;;;;4966986;28;20047;-34
2023/12/12 13:12:03;;;;;;;5.70;2.92;;;13.90;99.90;;;;;;4970252;28;20046;-35
2023/12/12 13:14:29;;;;;;;5.10;2.47;;;13.70;99.90;;;;;;4971645;28;20047;-36
2023/12/12 13:16:55;;;;;;;5.35;2.17;;;14.50;99.90;;;;;;4973210;28;20189;-35
2023/12/12 13:19:20;;;;;;;5.20;2.30;;;14.10;99.90;;;;;;4971922;28;20069;-35
2023/12/12 13:21:46;;;;;;;5.03;2.53;;;13.80;99.90;;;;;;4969180;28;20101;-36
2023/12/12 13:24:11;;;;;;;5.93;2.65;;;14.40;99.90;;;;;;4984896;28;20483;-33
2023/12/12 13:26:37;;;;;;;5.47;2.45;;;13.50;99.90;;;;;;4971777;28;20097;-36
2023/12/12 13:29:03;;;;;;;5.35;2.67;;;14.00;99.90;;;;;;4971061;28;20038;-35
2023/12/12 13:31:30;;;;;;;5.22;2.30;;;14.20;99.90;;;;;;4970725;28;20062;-36
2023/12/12 13:33:56;;;;;;;6.32;2.72;;;14.10;99.90;;;;;;4969796;28;20076;-36
2023/12/12 13:36:22;;;;;;;5.72;2.50;;;13.90;99.90;;;;;;4967607;28;20062;-34
2023/12/12 13:38:48;;;;;;;5.10;2.53;;;13.90;99.90;;;;;;4970870;28;20042;-35
2023/12/12 13:41:14;;;;;;;5.15;2.50;;;13.60;99.90;;;;;;4972371;28;20134;-34
2023/12/12 13:43:40;;;;;;;5.07;2.80;;;14.20;99.90;;;;;;4982219;28;20146;-35
2023/12/12 13:46:06;;;;;;;5.60;2.80;;;14.40;99.90;;;;;;4971869;28;20122;-35
2023/12/12 13:48:35;;;;;;;5.43;2.90;;;14.00;99.90;;;;;;4971475;28;20514;-35
2023/12/12 13:51:01;;;;;;;4.88;2.50;;;14.10;99.90;;;;;;4967530;28;20050;-35
2023/12/12 13:53:26;;;;;;;5.65;3.05;;;14.10;99.90;;;;;;4970573;28;20042;-36
2023/12/12 13:55:52;;;;;;;5.88;2.67;;;13.90;99.90;;;;;;4970379;28;20121;-34
2023/12/12 13:58:20;;;;;;;5.00;2.22;;;13.50;99.90;;;;;;4972441;28;20422;-35
2023/12/12 14:00:46;;;;;;;5.65;2.50;;;14.60;99.90;;;;;;4971039;28;20384;-37
2023/12/12 14:03:12;;;;;;;6.18;2.85;;;13.80;99.90;;;;;;4967795;28;20121;-36
2023/12/12 14:05:37;;;;;;;6.28;3.05;;;13.80;99.90;;;;;;4965844;28;20118;-34
2023/12/12 14:08:03;;;;;;;6.63;2.92;;;14.60;99.90;;;;;;4971338;28;20041;-37
2023/12/12 14:10:29;;;;;;;7.32;3.40;;;13.90;99.90;;;;;;4969524;28;20047;-33
2023/12/12 14:12:55;;;;;;;5.15;2.70;;;13.70;99.90;;;;;;4971649;28;20034;-36
2023/12/12 14:15:20;;;;;;;6.03;3.00;;;14.10;99.90;;;;;;4971445;28;20035;-37
2023/12/12 14:17:46;;;;;;;5.00;2.60;;;14.00;99.90;;;;;;4965474;28;20035;-34
2023/12/12 14:20:12;;;;;;;6.88;2.97;;;14.10;99.90;;;;;;4971447;28;20035;-35
2023/12/12 14:22:38;;;;;;;5.65;2.40;;;13.50;99.90;;;;;;4969522;28;20146;-36
2023/12/12 14:25:05;;;;;;;6.97;2.72;;;14.00;99.90;;;;;;4971088;28;20118;-35
2023/12/12 14:27:31;;;;;;;6.28;3.10;;;14.00;99.90;;;;;;4970469;28;20034;-37
2023/12/12 14:29:57;;;;;;;5.32;2.65;;;13.80;99.90;;;;;;4982814;28;20503;-36
2023/12/12 14:32:23;;;;;;;5.03;2.60;;;14.00;99.90;;;;;;4970831;28;20034;-36
2023/12/12 14:34:48;;;;;;;5.88;2.83;;;14.00;99.90;;;;;;4969721;28;20085;-36
2023/12/12 14:37:14;;;;;;;5.75;2.88;;;14.10;99.90;;;;;;4968511;28;20034;-36
2023/12/12 14:39:40;;;;;;;6.18;2.90;;;13.90;99.90;;;;;;4967061;28;20490;-38
2023/12/12 14:42:07;;;;;;;5.68;3.13;;;14.10;99.90;;;;;;4969533;28;20071;-35
2023/12/12 14:44:32;;;;;;;6.45;3.00;;;14.00;99.90;;;;;;4966930;28;20140;-36
2023/12/12 14:46:59;;;;;;;6.35;3.10;;;14.00;99.90;;;;;;4969572;28;20142;-33
2023/12/12 14:49:25;;;;;;;6.20;2.88;;;13.90;99.90;;;;;;4966872;28;20050;-36
2023/12/12 14:51:55;;;;;;;6.90;3.17;;;14.10;99.90;;;;;;4970420;28;20043;-36
2023/12/12 14:54:20;;;;;;;7.63;3.55;;;14.20;99.90;;;;;;4970340;28;20046;-36
2023/12/12 14:56:46;;;;;;;6.85;4.07;;;14.30;99.90;;;;;;4970174;28;20093;-35
2023/12/12 14:59:12;;;;;;;6.45;3.25;;;14.10;99.90;;;;;;4969295;28;20047;-36
2023/12/12 15:01:38;;;;;;;6.32;3.53;;;14.30;99.90;;;;;;4967146;28;20062;-36
2023/12/12 15:04:05;;;;;;;7.20;3.60;;;13.90;99.90;;;;;;4969394;28;20394;-39
2023/12/12 15:06:32;;;;;;;7.38;3.80;;;;;;;;;;4966836;28;20039;-36
2023/12/12 15:08:59;;;;;;;7.43;4.57;;;14.00;99.90;;;;;;4966236;28;20043;-37
2023/12/12 15:11:25;;;;;;;6.75;3.90;;;13.90;99.90;;;;;;4965316;28;20126;-35
2023/12/12 15:13:51;;;;;;;8.40;4.32;;;13.40;99.90;;;;;;4970699;28;20121;-38
2023/12/12 15:16:16;;;;;;;7.03;3.60;;;13.80;99.90;;;;;;4969754;28;20030;-35
2023/12/12 15:18:42;;;;;;;7.78;4.45;;;13.90;99.90;;;;;;4969730;28;20077;-36
2023/12/12 15:21:09;;;;;;;7.57;4.38;;;13.80;99.90;;;;;;4969958;28;20043;-36
2023/12/12 15:23:35;;;;;;;6.93;4.05;;;13.90;99.90;;;;;;4970211;28;20117;-34
2023/12/12 15:26:01;;;;;;;8.23;4.50;;;14.20;99.90;;;;;;4969734;28;20135;-35
2023/12/12 15:28:27;;;;;;;9.32;4.88;;;13.80;99.90;;;;;;4968246;28;20470;-35
2023/12/12 15:30:54;;;;;;;8.18;4.40;;;13.70;99.90;;;;;;4966546;28;20065;-35
2023/12/12 15:33:19;;;;;;;8.48;4.30;;;13.30;99.90;;;;;;4971781;28;20052;-36
2023/12/12 15:35:45;;;;;;;7.72;4.32;;;13.30;99.90;;;;;;4976848;28;20405;-34
2023/12/12 15:38:11;;;;;;;8.13;4.68;;;13.70;99.90;;;;;;4977060;28;20152;-35
2023/12/12 15:40:36;;;;;;;8.15;4.78;;;13.80;99.90;;;;;;4974031;28;20042;-33
2023/12/12 15:43:11;;;;;;;11.52;4.70;;;14.10;99.90;;;;;;4977459;28;20033;-36
2023/12/12 15:45:36;;;;;;;7.70;4.60;;;13.80;99.90;;;;;;4971639;28;20047;-36
2023/12/12 15:48:03;;;;;;;9.40;5.07;;;13.80;99.90;;;;;;4975141;28;20056;-35
2023/12/12 15:50:28;;;;;;;8.20;5.00;;;13.50;99.90;;;;;;4971649;28;20039;-35
2023/12/12 15:52:54;;;;;;;8.93;5.40;;;13.40;99.90;;;;;;4976079;28;20038;-35
2023/12/12 15:55:20;;;;;;;11.30;5.55;;;13.90;99.90;;;;;;4977007;28;20073;-38
2023/12/12 15:57:45;;;;;;;8.85;5.53;;;13.40;99.90;;;;;;4964234;28;20518;-36
2023/12/12 16:00:14;;;;;;;10.35;5.78;;;14.10;99.90;;;;;;4960877;28;20049;-35
2023/12/12 16:02:40;;;;;;;9.93;5.35;;;13.80;99.90;;;;;;4971231;28;20047;-36
2023/12/12 16:05:09;;;;;;;10.70;5.80;;;13.90;99.90;;;;;;4973838;28;20383;-36
2023/12/12 16:07:38;;;;;;;11.57;5.70;;;13.90;99.90;;;;;;4973858;28;20450;-39
2023/12/12 16:10:11;;;;;;;9.75;6.45;;;13.70;99.90;;;;;;4971576;28;20134;-38
2023/12/12 16:12:38;;;;;;;8.75;5.68;;;13.80;99.90;;;;;;4982501;28;20491;-35
2023/12/12 16:15:08;;;;;;;11.63;6.32;;;14.00;99.90;;;;;;4969534;28;20172;-36
2023/12/12 16:17:35;;;;;;;10.35;6.13;;;13.50;99.90;;;;;;4970558;28;20034;-35
2023/12/12 16:20:05;;;;;;;10.98;6.60;;;13.70;99.90;;;;;;4970787;28;20083;-36
2023/12/12 16:22:35;;;;;;;11.18;6.22;;;13.30;99.90;;;;;;4972777;28;20046;-38
2023/12/12 16:25:03;;;;;;;9.85;6.35;;;13.20;99.90;;;;;;4968982;28;20094;-35
2023/12/12 16:27:28;;;;;;;11.52;7.55;;;13.80;99.90;;;;;;4971115;28;20042;-33